MSC Uma — 9HA3605 — position and weather

sailwx.info

Track history (hours):
 
Tides and Currents Weather Stations Pressure Air Temp Water Temp Dewpoint Dewpoint Depression Visibility Wind Speed Wind Dir Waves Ship Positions

MSC Uma

Last reported at 2017-Dec-14 07:43 UTC. Time now 2018-Jan-19 13:44 UTC.
Position N 38°27' E 015°52'.
Warning: this ship's position is 36 days out of date.

Length 194 m; draft 9.6 m.

Type: Ship (hazmat cat A). MMSI: 229783000.

Date/timePositionNaut miles runAvg speedWind from/ knotsBaromVisibWave heightAir tempDewpointWater temp
2017-Dec-14 07:43N 38°27' E 015°52'3 2.5
2017-Dec-14 06:27N 38°28' E 015°48'1 2.3
2017-Dec-14 05:59N 38°27' E 015°49'3 1.8
2017-Dec-14 04:14N 38°28' E 015°45'1 1.4
2017-Dec-14 03:10N 38°30' E 015°45'0 1.5
2017-Dec-14 03:00N 38°30' E 015°44'1 1.3
2017-Dec-14 02:30N 38°30' E 015°44'1 1.3
2017-Dec-14 01:57N 38°31' E 015°43'2 1.3
2017-Dec-14 00:37N 38°32' E 015°42'0 1.2
2017-Dec-14 00:21N 38°32' E 015°41'0 1.2
2017-Dec-13 23:59N 38°32' E 015°41'1 1.2
2017-Dec-13 23:30N 38°32' E 015°40'1 1.7
2017-Dec-13 22:51N 38°34' E 015°40'6114.5
2017-Dec-13 18:37N 39°24' E 014°55'214.8
2017-Dec-13 18:29N 39°26' E 014°54'7510.9
2017-Dec-13 11:36N 40°32' E 014°07'113.5
2017-Dec-13 11:30N 40°33' E 014°07'713.6
2017-Dec-13 11:00N 40°39' E 014°11'713.7
2017-Dec-13 10:31N 40°45' E 014°16'5 8.9
2017-Dec-13 09:54N 40°50' E 014°17'0 0.1
2017-Dec-13 09:28N 40°50' E 014°17'0 0.0
2017-Dec-13 08:55N 40°50' E 014°17'0 0.0
2017-Dec-13 08:25N 40°50' E 014°17'0 0.0
2017-Dec-12 16:18N 40°50' E 014°17'0 0.2
2017-Dec-12 16:00N 40°50' E 014°17'0 0.0
2017-Dec-12 15:30N 40°50' E 014°17'0 0.0
2017-Dec-12 09:22N 40°50' E 014°17'0 0.0
2017-Dec-12 08:58N 40°50' E 014°17'2 3.7
2017-Dec-12 08:30N 40°49' E 014°17'0 0.5
2017-Dec-12 08:00N 40°48' E 014°18'5 9.5
2017-Dec-12 07:31N 40°44' E 014°15'1 1.1
2017-Dec-12 07:00N 40°44' E 014°15'1 1.8
2017-Dec-12 06:30N 40°44' E 014°16'1 0.1
2017-Dec-11 22:55N 40°45' E 014°16'1 1.3
2017-Dec-11 22:30N 40°45' E 014°16'1 1.1
2017-Dec-11 22:00N 40°44' E 014°16'0 0.3
2017-Dec-11 21:30N 40°44' E 014°16'1 1.4
2017-Dec-11 21:00N 40°45' E 014°16'1 1.8
2017-Dec-11 20:30N 40°44' E 014°16'1 2.2
2017-Dec-11 20:00N 40°45' E 014°16'1 1.3
2017-Dec-11 19:30N 40°44' E 014°16'1 1.4
2017-Dec-11 19:00N 40°44' E 014°16'1 2.1
2017-Dec-11 18:30N 40°45' E 014°16'1 1.3
2017-Dec-11 18:00N 40°44' E 014°16'0 0.2
2017-Dec-11 17:30N 40°44' E 014°16'1 1.3
2017-Dec-11 17:00N 40°45' E 014°16'1 1.6
2017-Dec-11 16:30N 40°44' E 014°16'1 1.5
2017-Dec-11 16:00N 40°45' E 014°16'0 0.6
2017-Dec-11 15:30N 40°45' E 014°16'1 1.5
2017-Dec-11 15:00N 40°44' E 014°16'1 1.1
2017-Dec-11 14:30N 40°44' E 014°16'1 1.4
2017-Dec-11 14:00N 40°45' E 014°16'1 1.3
2017-Dec-11 13:30N 40°44' E 014°16'0 0.5
2017-Dec-11 13:00N 40°44' E 014°16'1 2.3
2017-Dec-11 12:30N 40°45' E 014°16'1 1.5
2017-Dec-11 12:00N 40°44' E 014°16'1 1.0
2017-Dec-11 11:30N 40°45' E 014°16'2 4.2
2017-Dec-11 11:00N 40°43' E 014°14'510.8
2017-Dec-11 10:30N 40°39' E 014°10'510.0
2017-Dec-11 10:00N 40°36' E 014°04'5 9.3
2017-Dec-11 09:30N 40°36' E 013°58'5 9.1
2017-Dec-11 09:00N 40°36' E 013°52'21315.7
2017-Dec-10 19:27N 42°30' E 009°51'3116.6
2017-Dec-10 17:34N 42°59' E 009°37'114.3
2017-Dec-10 17:29N 43°00' E 009°36'713.9
2017-Dec-10 17:00N 43°07' E 009°35'713.0
2017-Dec-10 16:27N 43°14' E 009°37'612.8
2017-Dec-10 16:00N 43°20' E 009°38'713.2
2017-Dec-10 15:27N 43°27' E 009°41'612.9
2017-Dec-10 14:57N 43°33' E 009°42'613.1
2017-Dec-10 14:30N 43°39' E 009°45'713.3
2017-Dec-10 14:01N 43°45' E 009°47'714.0
2017-Dec-10 13:30N 43°52' E 009°50'714.1
2017-Dec-10 13:00N 43°58' E 009°53'612.5
2017-Dec-10 12:30N 44°05' E 009°51'2 3.9
2017-Dec-10 12:00N 44°06' E 009°50'0 0.0
2017-Dec-10 11:28N 44°06' E 009°50'0 0.0
2017-Dec-10 10:58N 44°06' E 009°50'0 0.0
2017-Dec-10 10:28N 44°06' E 009°50'0 0.0
2017-Dec-10 09:55N 44°06' E 009°50'0 0.0
2017-Dec-10 09:28N 44°06' E 009°50'0 0.0
2017-Dec-10 08:58N 44°06' E 009°50'0 0.0
2017-Dec-10 08:28N 44°06' E 009°50'0 0.0
2017-Dec-10 07:52N 44°06' E 009°50'0 0.0
2017-Dec-10 07:28N 44°06' E 009°50'0 0.0
2017-Dec-10 06:58N 44°06' E 009°50'0 0.0
2017-Dec-10 06:28N 44°06' E 009°50'0 0.0
2017-Dec-10 05:55N 44°06' E 009°50'0 0.0
2017-Dec-10 05:28N 44°06' E 009°50'0 0.0
2017-Dec-10 04:58N 44°06' E 009°50'0 0.0
2017-Dec-10 04:28N 44°06' E 009°50'0 0.0
2017-Dec-10 03:58N 44°06' E 009°50'0 0.0
2017-Dec-10 03:28N 44°06' E 009°50'0 0.0
2017-Dec-10 02:58N 44°06' E 009°50'0 0.0
2017-Dec-10 02:28N 44°06' E 009°50'0 0.0
2017-Dec-10 01:58N 44°06' E 009°50'0 0.0
2017-Dec-10 01:28N 44°06' E 009°50'0 0.0
2017-Dec-10 00:52N 44°06' E 009°50'0 0.0
2017-Dec-10 00:25N 44°06' E 009°50'0 0.0
2017-Dec-09 23:58N 44°06' E 009°50'0 0.0
2017-Dec-09 23:28N 44°06' E 009°50'0 0.0
2017-Dec-09 22:58N 44°06' E 009°50'0 0.0
2017-Dec-09 22:25N 44°06' E 009°50'0 0.0
2017-Dec-09 21:58N 44°06' E 009°50'0 0.0
2017-Dec-09 21:28N 44°06' E 009°50'0 0.0
2017-Dec-09 20:58N 44°06' E 009°50'0 0.0
2017-Dec-09 20:28N 44°06' E 009°50'0 0.0
2017-Dec-09 19:58N 44°06' E 009°50'0 0.0
2017-Dec-09 19:28N 44°06' E 009°50'0 0.0
2017-Dec-09 18:55N 44°06' E 009°50'0 0.0
2017-Dec-09 18:25N 44°06' E 009°50'0 0.0
2017-Dec-09 17:58N 44°06' E 009°50'0 0.0
2017-Dec-09 17:28N 44°06' E 009°50'0 0.0
2017-Dec-09 16:55N 44°06' E 009°50'0 0.0
2017-Dec-09 16:28N 44°06' E 009°50'0 0.0
2017-Dec-09 15:58N 44°06' E 009°50'0 0.0
2017-Dec-09 15:22N 44°06' E 009°50'0 0.0
2017-Dec-09 14:58N 44°06' E 009°50'0 0.0
2017-Dec-09 14:28N 44°06' E 009°50'0 0.0
2017-Dec-09 13:49N 44°06' E 009°50'0 0.0
2017-Dec-09 13:28N 44°06' E 009°50'0 0.0
2017-Dec-09 12:58N 44°06' E 009°50'0 0.0
2017-Dec-09 12:25N 44°06' E 009°50'0 0.0
2017-Dec-09 11:52N 44°06' E 009°50'0 0.0
2017-Dec-09 11:28N 44°06' E 009°50'0 0.0
2017-Dec-09 10:52N 44°06' E 009°50'0 0.0
2017-Dec-09 10:28N 44°06' E 009°50'0 0.0
2017-Dec-09 09:58N 44°06' E 009°50'0 0.0
2017-Dec-09 09:28N 44°06' E 009°50'0 0.0
2017-Dec-09 08:58N 44°06' E 009°50'0 0.0
2017-Dec-09 08:28N 44°06' E 009°50'0 0.4
2017-Dec-09 07:58N 44°06' E 009°50'4 7.7
2017-Dec-09 07:27N 44°03' E 009°53'4 7.3
2017-Dec-09 06:58N 44°00' E 009°56'3 6.7
2017-Dec-09 06:31N 43°57' E 009°55'0 0.5
2017-Dec-09 05:59N 43°57' E 009°55'0 0.0
2017-Dec-09 05:29N 43°57' E 009°55'0 0.2
2017-Dec-09 04:56N 43°57' E 009°55'0 0.1
2017-Dec-09 04:29N 43°57' E 009°55'0 0.1
2017-Dec-09 03:59N 43°57' E 009°55'0 0.1
2017-Dec-09 03:23N 43°57' E 009°55'0 0.1
2017-Dec-09 02:59N 43°57' E 009°55'0 0.0
2017-Dec-09 02:29N 43°57' E 009°55'0 0.1
2017-Dec-09 01:38N 43°57' E 009°55'0 0.1
2017-Dec-09 01:26N 43°57' E 009°55'0 0.1
2017-Dec-09 00:59N 43°57' E 009°55'0 0.3
2017-Dec-09 00:29N 43°57' E 009°55'0 0.0
2017-Dec-08 23:59N 43°57' E 009°55'0 0.0
2017-Dec-08 23:26N 43°57' E 009°55'0 0.0
2017-Dec-08 22:59N 43°57' E 009°55'0 0.0
2017-Dec-08 22:26N 43°57' E 009°55'0 0.1
2017-Dec-08 21:59N 43°57' E 009°55'0 0.1
2017-Dec-08 21:29N 43°57' E 009°55'0 0.2
2017-Dec-08 20:59N 43°57' E 009°55'0 0.1
2017-Dec-08 20:29N 43°57' E 009°55'0 0.2
2017-Dec-08 19:59N 43°57' E 009°55'0 0.0
2017-Dec-08 19:23N 43°57' E 009°55'0 0.2
2017-Dec-08 18:59N 43°57' E 009°55'0 0.0
2017-Dec-08 18:23N 43°57' E 009°55'0 0.0
2017-Dec-08 17:59N 43°57' E 009°55'0 0.0
2017-Dec-08 17:20N 43°57' E 009°55'0 0.1
2017-Dec-08 16:53N 43°57' E 009°55'0 0.1
2017-Dec-08 16:29N 43°57' E 009°55'0 0.0
2017-Dec-08 15:50N 43°57' E 009°55'0 0.1
2017-Dec-08 15:29N 43°57' E 009°55'0 0.1
2017-Dec-08 14:53N 43°57' E 009°55'0 0.0
2017-Dec-08 14:23N 43°57' E 009°55'0 0.1
2017-Dec-08 13:59N 43°57' E 009°55'0 0.1
2017-Dec-08 13:23N 43°57' E 009°55'0 0.1
2017-Dec-08 12:59N 43°57' E 009°55'0 0.1
2017-Dec-08 12:26N 43°57' E 009°55'0 0.1
2017-Dec-08 11:59N 43°57' E 009°55'0 0.0
2017-Dec-08 11:17N 43°57' E 009°55'0 0.2
2017-Dec-08 10:59N 43°57' E 009°55'0 0.2
2017-Dec-08 10:29N 43°57' E 009°55'0 0.0
2017-Dec-08 09:59N 43°57' E 009°55'0 0.1
2017-Dec-08 09:29N 43°57' E 009°55'0 0.2
2017-Dec-08 08:59N 43°57' E 009°55'0 0.0
2017-Dec-08 08:29N 43°57' E 009°55'0 0.0
2017-Dec-08 07:59N 43°57' E 009°55'0 0.1
2017-Dec-08 07:29N 43°57' E 009°55'0 0.0
2017-Dec-08 06:56N 43°57' E 009°55'0 0.0
2017-Dec-08 06:26N 43°57' E 009°55'0 0.2
2017-Dec-08 05:59N 43°57' E 009°55'1 1.5
2017-Dec-08 05:26N 43°57' E 009°54'511.0
2017-Dec-08 05:00N 43°53' E 009°49'4 8.3
2017-Dec-08 04:30N 43°52' E 009°44'5 9.7
2017-Dec-08 04:00N 43°55' E 009°38'510.2
2017-Dec-08 03:30N 43°57' E 009°32'510.3
2017-Dec-08 03:00N 43°59' E 009°25'510.0
2017-Dec-08 02:30N 44°01' E 009°19'510.0
2017-Dec-08 02:00N 44°04' E 009°13'510.1
2017-Dec-08 01:30N 44°06' E 009°07'510.0
2017-Dec-08 01:00N 44°09' E 009°01'510.0
2017-Dec-08 00:30N 44°11' E 008°55'510.3
2017-Dec-08 00:00N 44°14' E 008°49'5 9.9
2017-Dec-07 23:30N 44°18' E 008°44'5 9.1
2017-Dec-07 23:00N 44°22' E 008°42'4 8.7
2017-Dec-07 22:30N 44°25' E 008°47'1 1.2
2017-Dec-07 22:00N 44°25' E 008°48'0 0.0
2017-Dec-07 21:27N 44°25' E 008°48'0 0.0
2017-Dec-07 20:57N 44°25' E 008°48'0 0.0
2017-Dec-07 20:30N 44°25' E 008°48'0 0.0
2017-Dec-07 19:57N 44°25' E 008°48'0 0.0
2017-Dec-07 19:30N 44°25' E 008°48'0 0.0
2017-Dec-07 19:00N 44°25' E 008°48'0 0.0
2017-Dec-07 18:30N 44°25' E 008°48'0 0.0
2017-Dec-07 17:51N 44°25' E 008°48'0 0.0
2017-Dec-07 17:30N 44°25' E 008°48'0 0.0
2017-Dec-07 17:00N 44°25' E 008°48'0 0.0
2017-Dec-07 16:30N 44°25' E 008°48'0 0.0
2017-Dec-07 16:00N 44°25' E 008°48'0 0.0
2017-Dec-07 15:30N 44°25' E 008°48'0 0.0
2017-Dec-07 15:00N 44°25' E 008°48'0 0.0
2017-Dec-07 14:27N 44°25' E 008°48'0 0.0
2017-Dec-07 14:00N 44°25' E 008°48'0 0.0
2017-Dec-07 13:30N 44°25' E 008°48'0 0.0
2017-Dec-07 13:00N 44°25' E 008°48'0 0.0
2017-Dec-07 12:27N 44°25' E 008°48'0 0.0
2017-Dec-07 11:57N 44°25' E 008°48'0 0.0
2017-Dec-07 11:27N 44°25' E 008°48'0 0.1
2017-Dec-07 11:00N 44°25' E 008°48'2 4.7
2017-Dec-07 10:31N 44°24' E 008°45'2 3.5
2017-Dec-07 10:00N 44°22' E 008°44'4 8.3
2017-Dec-07 09:30N 44°18' E 008°43'816.2
2017-Dec-07 09:00N 44°11' E 008°48'816.2
2017-Dec-07 08:30N 44°04' E 008°53'816.1
2017-Dec-07 08:00N 43°57' E 008°58'816.1
2017-Dec-07 07:30N 43°49' E 009°03'816.3
2017-Dec-07 07:00N 43°42' E 009°09'916.2
2017-Dec-07 06:28N 43°35' E 009°15'716.2
2017-Dec-07 06:00N 43°28' E 009°20'815.7
2017-Dec-07 05:30N 43°21' E 009°25'815.9
2017-Dec-07 05:00N 43°14' E 009°31'816.3
2017-Dec-07 04:30N 43°07' E 009°36'  
Track history (hours):
 
Tides and Currents Weather Stations Pressure Air Temp Water Temp Dewpoint Dewpoint Depression Visibility Wind Speed Wind Dir Waves Ship Positions

MSC Uma

Last reported at 2017-Dec-14 07:43 UTC. Time now 2018-Jan-19 13:44 UTC.
Position N 38°27' E 015°52'.
Warning: this ship's position is 36 days out of date.

Length 194 m; draft 9.6 m.

Type: Ship (hazmat cat A). MMSI: 229783000.

Date/timePositionNaut miles runAvg speedWind from/ knotsBaromVisibWave heightAir tempDewpointWater temp
2017-Dec-14 07:43N 38°27' E 015°52'3 2.5
2017-Dec-14 06:27N 38°28' E 015°48'1 2.3
2017-Dec-14 05:59N 38°27' E 015°49'3 1.8
2017-Dec-14 04:14N 38°28' E 015°45'1 1.4
2017-Dec-14 03:10N 38°30' E 015°45'0 1.5
2017-Dec-14 03:00N 38°30' E 015°44'1 1.3
2017-Dec-14 02:30N 38°30' E 015°44'1 1.3
2017-Dec-14 01:57N 38°31' E 015°43'2 1.3
2017-Dec-14 00:37N 38°32' E 015°42'0 1.2
2017-Dec-14 00:21N 38°32' E 015°41'0 1.2
2017-Dec-13 23:59N 38°32' E 015°41'1 1.2
2017-Dec-13 23:30N 38°32' E 015°40'1 1.7
2017-Dec-13 22:51N 38°34' E 015°40'6114.5
2017-Dec-13 18:37N 39°24' E 014°55'214.8
2017-Dec-13 18:29N 39°26' E 014°54'7510.9
2017-Dec-13 11:36N 40°32' E 014°07'113.5
2017-Dec-13 11:30N 40°33' E 014°07'713.6
2017-Dec-13 11:00N 40°39' E 014°11'713.7
2017-Dec-13 10:31N 40°45' E 014°16'5 8.9
2017-Dec-13 09:54N 40°50' E 014°17'0 0.1
2017-Dec-13 09:28N 40°50' E 014°17'0 0.0
2017-Dec-13 08:55N 40°50' E 014°17'0 0.0
2017-Dec-13 08:25N 40°50' E 014°17'0 0.0
2017-Dec-12 16:18N 40°50' E 014°17'0 0.2
2017-Dec-12 16:00N 40°50' E 014°17'0 0.0
2017-Dec-12 15:30N 40°50' E 014°17'0 0.0
2017-Dec-12 09:22N 40°50' E 014°17'0 0.0
2017-Dec-12 08:58N 40°50' E 014°17'2 3.7
2017-Dec-12 08:30N 40°49' E 014°17'0 0.5
2017-Dec-12 08:00N 40°48' E 014°18'5 9.5
2017-Dec-12 07:31N 40°44' E 014°15'1 1.1
2017-Dec-12 07:00N 40°44' E 014°15'1 1.8
2017-Dec-12 06:30N 40°44' E 014°16'1 0.1
2017-Dec-11 22:55N 40°45' E 014°16'1 1.3
2017-Dec-11 22:30N 40°45' E 014°16'1 1.1
2017-Dec-11 22:00N 40°44' E 014°16'0 0.3
2017-Dec-11 21:30N 40°44' E 014°16'1 1.4
2017-Dec-11 21:00N 40°45' E 014°16'1 1.8
2017-Dec-11 20:30N 40°44' E 014°16'1 2.2
2017-Dec-11 20:00N 40°45' E 014°16'1 1.3
2017-Dec-11 19:30N 40°44' E 014°16'1 1.4
2017-Dec-11 19:00N 40°44' E 014°16'1 2.1
2017-Dec-11 18:30N 40°45' E 014°16'1 1.3
2017-Dec-11 18:00N 40°44' E 014°16'0 0.2
2017-Dec-11 17:30N 40°44' E 014°16'1 1.3
2017-Dec-11 17:00N 40°45' E 014°16'1 1.6
2017-Dec-11 16:30N 40°44' E 014°16'1 1.5
2017-Dec-11 16:00N 40°45' E 014°16'0 0.6
2017-Dec-11 15:30N 40°45' E 014°16'1 1.5
2017-Dec-11 15:00N 40°44' E 014°16'1 1.1
2017-Dec-11 14:30N 40°44' E 014°16'1 1.4
2017-Dec-11 14:00N 40°45' E 014°16'1 1.3
2017-Dec-11 13:30N 40°44' E 014°16'0 0.5
2017-Dec-11 13:00N 40°44' E 014°16'1 2.3
2017-Dec-11 12:30N 40°45' E 014°16'1 1.5
2017-Dec-11 12:00N 40°44' E 014°16'1 1.0
2017-Dec-11 11:30N 40°45' E 014°16'2 4.2
2017-Dec-11 11:00N 40°43' E 014°14'510.8
2017-Dec-11 10:30N 40°39' E 014°10'510.0
2017-Dec-11 10:00N 40°36' E 014°04'5 9.3
2017-Dec-11 09:30N 40°36' E 013°58'5 9.1
2017-Dec-11 09:00N 40°36' E 013°52'21315.7
2017-Dec-10 19:27N 42°30' E 009°51'3116.6
2017-Dec-10 17:34N 42°59' E 009°37'114.3
2017-Dec-10 17:29N 43°00' E 009°36'713.9
2017-Dec-10 17:00N 43°07' E 009°35'713.0
2017-Dec-10 16:27N 43°14' E 009°37'612.8
2017-Dec-10 16:00N 43°20' E 009°38'713.2
2017-Dec-10 15:27N 43°27' E 009°41'612.9
2017-Dec-10 14:57N 43°33' E 009°42'613.1
2017-Dec-10 14:30N 43°39' E 009°45'713.3
2017-Dec-10 14:01N 43°45' E 009°47'714.0
2017-Dec-10 13:30N 43°52' E 009°50'714.1
2017-Dec-10 13:00N 43°58' E 009°53'612.5
2017-Dec-10 12:30N 44°05' E 009°51'2 3.9
2017-Dec-10 12:00N 44°06' E 009°50'0 0.0
2017-Dec-10 11:28N 44°06' E 009°50'0 0.0
2017-Dec-10 10:58N 44°06' E 009°50'0 0.0
2017-Dec-10 10:28N 44°06' E 009°50'0 0.0
2017-Dec-10 09:55N 44°06' E 009°50'0 0.0
2017-Dec-10 09:28N 44°06' E 009°50'0 0.0
2017-Dec-10 08:58N 44°06' E 009°50'0 0.0
2017-Dec-10 08:28N 44°06' E 009°50'0 0.0
2017-Dec-10 07:52N 44°06' E 009°50'0 0.0
2017-Dec-10 07:28N 44°06' E 009°50'0 0.0
2017-Dec-10 06:58N 44°06' E 009°50'0 0.0
2017-Dec-10 06:28N 44°06' E 009°50'0 0.0
2017-Dec-10 05:55N 44°06' E 009°50'0 0.0
2017-Dec-10 05:28N 44°06' E 009°50'0 0.0
2017-Dec-10 04:58N 44°06' E 009°50'0 0.0
2017-Dec-10 04:28N 44°06' E 009°50'0 0.0
2017-Dec-10 03:58N 44°06' E 009°50'0 0.0
2017-Dec-10 03:28N 44°06' E 009°50'0 0.0
2017-Dec-10 02:58N 44°06' E 009°50'0 0.0
2017-Dec-10 02:28N 44°06' E 009°50'0 0.0
2017-Dec-10 01:58N 44°06' E 009°50'0 0.0
2017-Dec-10 01:28N 44°06' E 009°50'0 0.0
2017-Dec-10 00:52N 44°06' E 009°50'0 0.0
2017-Dec-10 00:25N 44°06' E 009°50'0 0.0
2017-Dec-09 23:58N 44°06' E 009°50'0 0.0
2017-Dec-09 23:28N 44°06' E 009°50'0 0.0
2017-Dec-09 22:58N 44°06' E 009°50'0 0.0
2017-Dec-09 22:25N 44°06' E 009°50'0 0.0
2017-Dec-09 21:58N 44°06' E 009°50'0 0.0
2017-Dec-09 21:28N 44°06' E 009°50'0 0.0
2017-Dec-09 20:58N 44°06' E 009°50'0 0.0
2017-Dec-09 20:28N 44°06' E 009°50'0 0.0
2017-Dec-09 19:58N 44°06' E 009°50'0 0.0
2017-Dec-09 19:28N 44°06' E 009°50'0 0.0
2017-Dec-09 18:55N 44°06' E 009°50'0 0.0
2017-Dec-09 18:25N 44°06' E 009°50'0 0.0
2017-Dec-09 17:58N 44°06' E 009°50'0 0.0
2017-Dec-09 17:28N 44°06' E 009°50'0 0.0
2017-Dec-09 16:55N 44°06' E 009°50'0 0.0
2017-Dec-09 16:28N 44°06' E 009°50'0 0.0
2017-Dec-09 15:58N 44°06' E 009°50'0 0.0
2017-Dec-09 15:22N 44°06' E 009°50'0 0.0
2017-Dec-09 14:58N 44°06' E 009°50'0 0.0
2017-Dec-09 14:28N 44°06' E 009°50'0 0.0
2017-Dec-09 13:49N 44°06' E 009°50'0 0.0
2017-Dec-09 13:28N 44°06' E 009°50'0 0.0
2017-Dec-09 12:58N 44°06' E 009°50'0 0.0
2017-Dec-09 12:25N 44°06' E 009°50'0 0.0
2017-Dec-09 11:52N 44°06' E 009°50'0 0.0
2017-Dec-09 11:28N 44°06' E 009°50'0 0.0
2017-Dec-09 10:52N 44°06' E 009°50'0 0.0
2017-Dec-09 10:28N 44°06' E 009°50'0 0.0
2017-Dec-09 09:58N 44°06' E 009°50'0 0.0
2017-Dec-09 09:28N 44°06' E 009°50'0 0.0
2017-Dec-09 08:58N 44°06' E 009°50'0 0.0
2017-Dec-09 08:28N 44°06' E 009°50'0 0.4
2017-Dec-09 07:58N 44°06' E 009°50'4 7.7
2017-Dec-09 07:27N 44°03' E 009°53'4 7.3
2017-Dec-09 06:58N 44°00' E 009°56'3 6.7
2017-Dec-09 06:31N 43°57' E 009°55'0 0.5
2017-Dec-09 05:59N 43°57' E 009°55'0 0.0
2017-Dec-09 05:29N 43°57' E 009°55'0 0.2
2017-Dec-09 04:56N 43°57' E 009°55'0 0.1
2017-Dec-09 04:29N 43°57' E 009°55'0 0.1
2017-Dec-09 03:59N 43°57' E 009°55'0 0.1
2017-Dec-09 03:23N 43°57' E 009°55'0 0.1
2017-Dec-09 02:59N 43°57' E 009°55'0 0.0
2017-Dec-09 02:29N 43°57' E 009°55'0 0.1
2017-Dec-09 01:38N 43°57' E 009°55'0 0.1
2017-Dec-09 01:26N 43°57' E 009°55'0 0.1
2017-Dec-09 00:59N 43°57' E 009°55'0 0.3
2017-Dec-09 00:29N 43°57' E 009°55'0 0.0
2017-Dec-08 23:59N 43°57' E 009°55'0 0.0
2017-Dec-08 23:26N 43°57' E 009°55'0 0.0
2017-Dec-08 22:59N 43°57' E 009°55'0 0.0
2017-Dec-08 22:26N 43°57' E 009°55'0 0.1
2017-Dec-08 21:59N 43°57' E 009°55'0 0.1
2017-Dec-08 21:29N 43°57' E 009°55'0 0.2
2017-Dec-08 20:59N 43°57' E 009°55'0 0.1
2017-Dec-08 20:29N 43°57' E 009°55'0 0.2
2017-Dec-08 19:59N 43°57' E 009°55'0 0.0
2017-Dec-08 19:23N 43°57' E 009°55'0 0.2
2017-Dec-08 18:59N 43°57' E 009°55'0 0.0
2017-Dec-08 18:23N 43°57' E 009°55'0 0.0
2017-Dec-08 17:59N 43°57' E 009°55'0 0.0
2017-Dec-08 17:20N 43°57' E 009°55'0 0.1
2017-Dec-08 16:53N 43°57' E 009°55'0 0.1
2017-Dec-08 16:29N 43°57' E 009°55'0 0.0
2017-Dec-08 15:50N 43°57' E 009°55'0 0.1
2017-Dec-08 15:29N 43°57' E 009°55'0 0.1
2017-Dec-08 14:53N 43°57' E 009°55'0 0.0
2017-Dec-08 14:23N 43°57' E 009°55'0 0.1
2017-Dec-08 13:59N 43°57' E 009°55'0 0.1
2017-Dec-08 13:23N 43°57' E 009°55'0 0.1
2017-Dec-08 12:59N 43°57' E 009°55'0 0.1
2017-Dec-08 12:26N 43°57' E 009°55'0 0.1
2017-Dec-08 11:59N 43°57' E 009°55'0 0.0
2017-Dec-08 11:17N 43°57' E 009°55'0 0.2
2017-Dec-08 10:59N 43°57' E 009°55'0 0.2
2017-Dec-08 10:29N 43°57' E 009°55'0 0.0
2017-Dec-08 09:59N 43°57' E 009°55'0 0.1
2017-Dec-08 09:29N 43°57' E 009°55'0 0.2
2017-Dec-08 08:59N 43°57' E 009°55'0 0.0
2017-Dec-08 08:29N 43°57' E 009°55'0 0.0
2017-Dec-08 07:59N 43°57' E 009°55'0 0.1
2017-Dec-08 07:29N 43°57' E 009°55'0 0.0
2017-Dec-08 06:56N 43°57' E 009°55'0 0.0
2017-Dec-08 06:26N 43°57' E 009°55'0 0.2
2017-Dec-08 05:59N 43°57' E 009°55'1 1.5
2017-Dec-08 05:26N 43°57' E 009°54'511.0
2017-Dec-08 05:00N 43°53' E 009°49'4 8.3
2017-Dec-08 04:30N 43°52' E 009°44'5 9.7
2017-Dec-08 04:00N 43°55' E 009°38'510.2
2017-Dec-08 03:30N 43°57' E 009°32'510.3
2017-Dec-08 03:00N 43°59' E 009°25'510.0
2017-Dec-08 02:30N 44°01' E 009°19'510.0
2017-Dec-08 02:00N 44°04' E 009°13'510.1
2017-Dec-08 01:30N 44°06' E 009°07'510.0
2017-Dec-08 01:00N 44°09' E 009°01'510.0
2017-Dec-08 00:30N 44°11' E 008°55'510.3
2017-Dec-08 00:00N 44°14' E 008°49'5 9.9
2017-Dec-07 23:30N 44°18' E 008°44'5 9.1
2017-Dec-07 23:00N 44°22' E 008°42'4 8.7
2017-Dec-07 22:30N 44°25' E 008°47'1 1.2
2017-Dec-07 22:00N 44°25' E 008°48'0 0.0
2017-Dec-07 21:27N 44°25' E 008°48'0 0.0
2017-Dec-07 20:57N 44°25' E 008°48'0 0.0
2017-Dec-07 20:30N 44°25' E 008°48'0 0.0
2017-Dec-07 19:57N 44°25' E 008°48'0 0.0
2017-Dec-07 19:30N 44°25' E 008°48'0 0.0
2017-Dec-07 19:00N 44°25' E 008°48'0 0.0
2017-Dec-07 18:30N 44°25' E 008°48'0 0.0
2017-Dec-07 17:51N 44°25' E 008°48'0 0.0
2017-Dec-07 17:30N 44°25' E 008°48'0 0.0
2017-Dec-07 17:00N 44°25' E 008°48'0 0.0
2017-Dec-07 16:30N 44°25' E 008°48'0 0.0
2017-Dec-07 16:00N 44°25' E 008°48'0 0.0
2017-Dec-07 15:30N 44°25' E 008°48'0 0.0
2017-Dec-07 15:00N 44°25' E 008°48'0 0.0
2017-Dec-07 14:27N 44°25' E 008°48'0 0.0
2017-Dec-07 14:00N 44°25' E 008°48'0 0.0
2017-Dec-07 13:30N 44°25' E 008°48'0 0.0
2017-Dec-07 13:00N 44°25' E 008°48'0 0.0
2017-Dec-07 12:27N 44°25' E 008°48'0 0.0
2017-Dec-07 11:57N 44°25' E 008°48'0 0.0
2017-Dec-07 11:27N 44°25' E 008°48'0 0.1
2017-Dec-07 11:00N 44°25' E 008°48'2 4.7
2017-Dec-07 10:31N 44°24' E 008°45'2 3.5
2017-Dec-07 10:00N 44°22' E 008°44'4 8.3
2017-Dec-07 09:30N 44°18' E 008°43'816.2
2017-Dec-07 09:00N 44°11' E 008°48'816.2
2017-Dec-07 08:30N 44°04' E 008°53'816.1
2017-Dec-07 08:00N 43°57' E 008°58'816.1
2017-Dec-07 07:30N 43°49' E 009°03'816.3
2017-Dec-07 07:00N 43°42' E 009°09'916.2
2017-Dec-07 06:28N 43°35' E 009°15'716.2
2017-Dec-07 06:00N 43°28' E 009°20'815.7
2017-Dec-07 05:30N 43°21' E 009°25'815.9
2017-Dec-07 05:00N 43°14' E 009°31'816.3
2017-Dec-07 04:30N 43°07' E 009°36'  

Dump ship's entire track history